Terminal Aerodrome Forecast
Issued by NWS

Home | Current Version | Previous Version | Graphics & Text | Print | Product List | Glossary On
Versions: 1 2 3 4 5 6 7 8 9 10 11 12 13 14 15 16 17
000
FTUS43 KBIS 150400 AAC
TAFDIK
TAF AMD
KDIK 150423Z 1504/1524 16025G32KT P6SM SCT250 WS012/17055KT
     FM150900 19014KT P6SM SCT160 WS020/18050KT
     FM151300 23011KT P6SM SCT180
     FM151400 25012KT P6SM BKN200
     FM151800 29011KT P6SM BKN050
     FM152300 33013KT P6SM BKN050=

USA.gov is the U.S. government's official web portal to all federal, state and local government web resources and services.